Time;durP1;ratioP1;P1;durP2;ratioP2;P2;SDS_P1;SDS_P2;PMS_P1;PMS_P2;Temp;Humidity;BMP_temperature;BMP_pressure;BME280_temperature;BME280_humidity;BME280_pressure;Samples;Min_cycle;Max_cycle;Signal;HPM_P1;HPM_P2
2023/11/24 00:02:04;;;;;;;3.75;1.88;;;7.30;99.90;;;;;;5035503;28;20586;-85
2023/11/24 00:04:30;;;;;;;6.07;2.38;;;;;;;;;;5033050;28;20036;-85
2023/11/24 00:06:56;;;;;;;4.55;2.30;;;;;;;;;;5034258;28;20021;-85
2023/11/24 00:09:27;;;;;;;3.75;1.80;;;7.30;97.80;;;;;;5035302;28;20079;-85
2023/11/24 00:11:53;;;;;;;2.80;2.03;;;;;;;;;;5036113;28;20017;-86
2023/11/24 00:14:19;;;;;;;2.20;1.20;;;7.20;98.60;;;;;;5032962;28;20029;-85
2023/11/24 00:16:47;;;;;;;1.23;0.95;;;7.20;98.90;;;;;;5033543;28;20923;-85
2023/11/24 00:19:15;;;;;;;;;;;7.30;98.70;;;;;;5037049;28;20013;-85
2023/11/24 00:21:42;;;;;;;1.73;1.10;;;7.20;98.40;;;;;;5033364;28;20385;-86
2023/11/24 00:24:08;;;;;;;1.58;1.30;;;;;;;;;;5035607;28;20041;-84
2023/11/24 00:26:34;;;;;;;0.80;0.80;;;;;;;;;;5020623;28;20406;-85
2023/11/24 00:29:01;;;;;;;1.42;0.82;;;;;;;;;;5034683;28;20079;-85
2023/11/24 00:31:27;;;;;;;1.02;0.80;;;;;;;;;;5033428;28;20044;-85
2023/11/24 00:33:53;;;;;;;4.57;1.10;;;;;;;;;;5032927;28;20111;-85
2023/11/24 00:36:20;;;;;;;1.02;0.93;;;;;;;;;;5031708;28;20075;-85
2023/11/24 00:38:49;;;;;;;1.45;1.10;;;;;;;;;;5035099;28;20438;-85
2023/11/24 00:41:15;;;;;;;1.83;1.10;;;;;;;;;;5030316;28;20042;-85
2023/11/24 00:43:41;;;;;;;1.40;1.05;;;;;;;;;;5035007;28;20044;-85
2023/11/24 00:46:08;;;;;;;3.28;1.38;;;;;;;;;;5032171;28;20121;-85
2023/11/24 00:48:35;;;;;;;2.25;1.42;;;;;;;;;;5033284;28;20041;-85
2023/11/24 00:51:01;;;;;;;1.23;1.03;;;;;;;;;;5032631;28;20060;-85
2023/11/24 00:53:27;;;;;;;3.13;1.73;;;;;;;;;;5033693;28;20097;-85
2023/11/24 00:55:54;;;;;;;3.10;1.77;;;;;;;;;;5020563;28;20316;-85
2023/11/24 00:58:20;;;;;;;3.28;1.30;;;;;;;;;;5032890;28;20017;-86
2023/11/24 01:00:45;;;;;;;4.25;1.30;;;7.50;99.90;;;;;;5021057;28;20037;-86
2023/11/24 01:03:12;;;;;;;3.90;1.63;;;;;;;;;;5034906;28;20079;-85
2023/11/24 01:05:37;;;;;;;2.05;1.25;;;;;;;;;;5032826;28;20116;-85
2023/11/24 01:08:04;;;;;;;3.42;1.80;;;;;;;;;;5034747;28;20150;-85
2023/11/24 01:10:30;;;;;;;5.35;1.55;;;;;;;;;;5032660;28;20028;-86
2023/11/24 01:12:58;;;;;;;1.77;1.02;;;;;;;;;;5034720;28;20151;-85
2023/11/24 01:15:24;;;;;;;2.00;1.38;;;;;;;;;;5035142;28;20112;-86
2023/11/24 01:17:50;;;;;;;4.65;1.33;;;;;;;;;;5032697;28;20028;-85
2023/11/24 01:20:16;;;;;;;5.45;1.60;;;;;;;;;;5032868;28;20038;-85
2023/11/24 01:22:43;;;;;;;4.85;1.63;;;7.50;97.30;;;;;;5033112;28;20047;-85
2023/11/24 01:25:09;;;;;;;1.70;1.00;;;;;;;;;;5032377;28;20042;-86
2023/11/24 01:27:35;;;;;;;1.33;0.90;;;7.90;99.90;;;;;;5031381;28;20055;-85
2023/11/24 01:30:01;;;;;;;6.28;1.70;;;;;;;;;;5031807;28;20029;-86
2023/11/24 01:32:27;;;;;;;1.58;1.23;;;;;;;;;;5032786;28;20037;-86
2023/11/24 01:34:53;;;;;;;3.15;1.33;;;;;;;;;;5031621;28;20060;-86
2023/11/24 01:37:21;;;;;;;1.85;1.38;;;7.30;97.80;;;;;;5018942;28;20303;-86
2023/11/24 01:39:49;;;;;;;6.45;1.38;;;;;;;;;;5031752;28;20084;-85
2023/11/24 01:42:15;;;;;;;1.40;1.20;;;;;;;;;;5031298;28;20026;-85
2023/11/24 01:44:42;;;;;;;1.40;0.95;;;;;;;;;;5033288;28;20510;-85
2023/11/24 01:47:08;;;;;;;1.33;1.00;;;;;;;;;;5019672;28;20483;-85
2023/11/24 01:49:35;;;;;;;2.03;1.05;;;;;;;;;;5033673;28;20676;-85
2023/11/24 01:52:01;;;;;;;0.90;0.90;;;;;;;;;;5032584;28;20021;-85
2023/11/24 01:54:33;;;;;;;1.85;1.02;;;7.30;98.50;;;;;;5032017;28;20021;-85
2023/11/24 01:56:59;;;;;;;0.80;0.80;;;;;;;;;;5032858;28;20025;-85
2023/11/24 01:59:25;;;;;;;0.60;0.60;;;;;;;;;;5031894;28;20495;-86
2023/11/24 02:01:51;;;;;;;1.33;0.73;;;;;;;;;;5032021;28;20026;-85
2023/11/24 02:04:17;;;;;;;2.28;1.42;;;;;;;;;;5033633;28;20025;-85
2023/11/24 02:06:43;;;;;;;3.58;1.10;;;;;;;;;;5033534;28;20033;-85
2023/11/24 02:09:10;;;;;;;1.55;1.05;;;7.30;98.80;;;;;;5032449;28;20100;-85
2023/11/24 02:11:36;;;;;;;1.00;0.85;;;;;;;;;;5032941;28;20029;-85
2023/11/24 02:14:02;;;;;;;4.13;1.20;;;;;;;;;;5035068;28;20025;-85
2023/11/24 02:16:28;;;;;;;2.17;1.55;;;;;;;;;;5032113;28;20048;-85
2023/11/24 02:18:54;;;;;;;1.10;0.90;;;;;;;;;;5031976;28;20025;-86
2023/11/24 02:21:20;;;;;;;2.22;1.20;;;;;;;;;;5033026;28;20495;-84
2023/11/24 02:23:46;;;;;;;1.13;1.00;;;;;;;;;;5030733;28;20466;-85
2023/11/24 02:26:14;;;;;;;2.85;1.48;;;;;;;;;;5031318;28;20535;-86
2023/11/24 02:28:40;;;;;;;3.10;0.90;;;;;;;;;;5031887;28;20056;-85
2023/11/24 02:31:07;;;;;;;0.50;0.50;;;;;;;;;;5016506;28;20068;-85
2023/11/24 02:33:33;;;;;;;3.35;1.05;;;;;;;;;;5031067;28;20039;-85
2023/11/24 02:36:05;;;;;;;0.73;0.73;;;;;;;;;;5032289;28;20035;-85
2023/11/24 02:38:31;;;;;;;2.17;0.93;;;;;;;;;;5030912;28;20111;-84
2023/11/24 02:40:57;;;;;;;1.17;0.85;;;;;;;;;;5032704;28;20109;-85
2023/11/24 02:43:23;;;;;;;4.63;0.90;;;;;;;;;;5014971;28;20163;-85
2023/11/24 02:45:49;;;;;;;1.05;0.73;;;;;;;;;;5012325;28;20041;-85
2023/11/24 02:48:16;;;;;;;1.70;0.77;;;;;;;;;;5011234;28;20026;-85
2023/11/24 02:50:42;;;;;;;2.13;0.83;;;;;;;;;;5013497;28;20108;-84
2023/11/24 02:53:09;;;;;;;1.55;1.13;;;;;;;;;;5012239;28;20034;-86
2023/11/24 02:55:35;;;;;;;1.83;1.20;;;7.20;99.90;;;;;;5011831;28;20026;-85
2023/11/24 02:58:01;;;;;;;1.38;0.88;;;;;;;;;;5014176;28;20044;-85
2023/11/24 03:00:27;;;;;;;2.53;1.33;;;7.30;99.90;;;;;;5011056;28;20080;-85
2023/11/24 03:02:53;;;;;;;0.90;0.77;;;;;;;;;;5012850;28;20029;-84
2023/11/24 03:05:19;;;;;;;0.93;0.80;;;;;;;;;;5013726;28;20026;-85
2023/11/24 03:07:45;;;;;;;0.82;0.82;;;;;;;;;;5011147;28;20076;-85
2023/11/24 03:10:11;;;;;;;2.05;0.80;;;;;;;;;;5012503;28;20027;-85
2023/11/24 03:12:37;;;;;;;2.35;0.70;;;;;;;;;;5010346;28;20044;-85
2023/11/24 03:15:04;;;;;;;1.95;0.98;;;;;;;;;;5010267;28;20049;-85
2023/11/24 03:17:30;;;;;;;2.08;0.98;;;;;;;;;;5011780;28;20022;-85
2023/11/24 03:19:56;;;;;;;2.83;1.17;;;;;;;;;;5011826;28;20100;-85
2023/11/24 03:22:22;;;;;;;1.75;1.15;;;7.20;99.90;;;;;;5014842;28;20018;-85
2023/11/24 03:24:48;;;;;;;4.85;2.03;;;;;;;;;;5011185;28;20568;-85
2023/11/24 03:27:14;;;;;;;1.48;1.02;;;;;;;;;;5006810;28;20040;-85
2023/11/24 03:29:40;;;;;;;3.40;1.45;;;;;;;;;;5014488;28;20018;-85
2023/11/24 03:32:06;;;;;;;1.73;1.27;;;;;;;;;;5012247;28;20029;-85
2023/11/24 03:34:32;;;;;;;1.77;1.08;;;;;;;;;;5011675;28;20041;-85
2023/11/24 03:36:59;;;;;;;2.60;1.27;;;;;;;;;;5011551;28;20062;-85
2023/11/24 03:39:25;;;;;;;5.80;1.47;;;;;;;;;;5012392;28;20029;-85
2023/11/24 03:41:51;;;;;;;4.35;1.60;;;;;;;;;;5009567;28;20032;-85
2023/11/24 03:44:17;;;;;;;3.25;1.23;;;;;;;;;;5025334;28;20041;-85
2023/11/24 03:46:43;;;;;;;1.67;1.00;;;;;;;;;;5028018;28;20034;-85
2023/11/24 03:49:11;;;;;;;2.80;1.33;;;;;;;;;;5030280;28;20036;-85
2023/11/24 03:51:36;;;;;;;;;;;7.00;99.90;;;;;;5030534;28;20519;-85
2023/11/24 03:54:02;;;;;;;1.02;0.80;;;;;;;;;;5032689;28;19913;-85
2023/11/24 03:56:28;;;;;;;0.80;0.80;;;;;;;;;;5030325;28;20021;-85
2023/11/24 03:58:54;;;;;;;1.60;0.80;;;;;;;;;;5017346;28;20052;-85
2023/11/24 04:01:20;;;;;;;1.63;1.23;;;;;;;;;;5032752;28;20029;-84
2023/11/24 04:03:46;;;;;;;1.67;1.13;;;;;;;;;;5031211;28;20519;-85
2023/11/24 04:06:15;;;;;;;1.40;1.00;;;6.90;99.90;;;;;;5037027;28;20490;-86
2023/11/24 04:08:41;;;;;;;1.30;1.20;;;;;;;;;;5034826;28;20013;-85
2023/11/24 04:11:07;;;;;;;1.30;0.90;;;;;;;;;;5035334;28;20032;-85
2023/11/24 04:13:33;;;;;;;0.90;0.90;;;;;;;;;;5036101;28;20082;-85
2023/11/24 04:15:59;;;;;;;1.00;0.63;;;;;;;;;;5035447;28;20433;-85
2023/11/24 04:18:25;;;;;;;2.65;1.23;;;;;;;;;;5034402;28;20018;-85
2023/11/24 04:20:52;;;;;;;1.35;0.80;;;;;;;;;;5033291;28;20371;-85
2023/11/24 04:23:21;;;;;;;1.38;0.93;;;7.10;99.90;;;;;;5034876;28;20446;-85
2023/11/24 04:25:47;;;;;;;0.80;0.80;;;;;;;;;;5033697;28;20125;-85
2023/11/24 04:28:15;;;;;;;0.88;0.75;;;7.00;99.90;;;;;;5035909;28;20412;-85
2023/11/24 04:30:41;;;;;;;1.33;0.80;;;;;;;;;;5032701;28;20040;-85
2023/11/24 04:33:07;;;;;;;0.98;0.77;;;;;;;;;;5035414;28;20028;-86
2023/11/24 04:35:33;;;;;;;2.00;1.17;;;;;;;;;;5033622;28;20037;-85
2023/11/24 04:38:00;;;;;;;1.35;0.98;;;;;;;;;;5034011;28;20083;-85
2023/11/24 04:40:26;;;;;;;1.42;1.27;;;;;;;;;;5033278;28;20033;-85
2023/11/24 04:42:52;;;;;;;1.30;1.08;;;;;;;;;;5034686;28;20025;-86
2023/11/24 04:45:18;;;;;;;2.22;0.73;;;;;;;;;;5035397;28;20029;-85
2023/11/24 04:47:44;;;;;;;0.70;0.70;;;;;;;;;;5035423;28;20098;-85
2023/11/24 04:50:10;;;;;;;2.15;0.95;;;7.10;99.90;;;;;;5033775;28;20080;-85
2023/11/24 04:52:36;;;;;;;1.58;1.20;;;;;;;;;;5033636;28;20022;-86
2023/11/24 04:55:03;;;;;;;1.17;0.90;;;7.10;99.90;;;;;;5032605;28;20033;-85
2023/11/24 04:57:31;;;;;;;1.98;1.05;;;;;;;;;;5035060;28;20029;-85
2023/11/24 04:59:57;;;;;;;1.40;1.02;;;;;;;;;;5033334;28;20025;-85
2023/11/24 05:02:23;;;;;;;1.38;1.08;;;;;;;;;;5033622;28;20115;-85
2023/11/24 05:04:49;;;;;;;1.17;1.10;;;;;;;;;;5034010;28;20024;-85
2023/11/24 05:07:18;;;;;;;4.10;1.40;;;;;;;;;;5033224;28;20493;-85
2023/11/24 05:09:47;;;;;;;1.33;0.98;;;;;;;;;;5034357;28;20017;-85
2023/11/24 05:12:13;;;;;;;2.40;1.60;;;;;;;;;;5032307;28;20037;-86
2023/11/24 05:14:39;;;;;;;1.35;1.25;;;;;;;;;;5033432;28;20029;-86
2023/11/24 05:17:05;;;;;;;0.95;0.82;;;5.70;99.90;;;;;;5033198;28;20113;-85
2023/11/24 05:19:31;;;;;;;1.33;1.00;;;;;;;;;;5034636;28;20112;-85
2023/11/24 05:21:57;;;;;;;1.38;1.20;;;7.10;99.90;;;;;;5035270;28;20030;-86
2023/11/24 05:24:23;;;;;;;2.42;1.40;;;;;;;;;;5033015;28;20044;-86
2023/11/24 05:26:49;;;;;;;1.55;1.25;;;;;;;;;;5034886;28;20569;-86
2023/11/24 05:29:15;;;;;;;1.42;1.33;;;;;;;;;;5033200;28;20029;-86
2023/11/24 05:31:41;;;;;;;3.63;1.33;;;;;;;;;;5031556;28;20021;-85
2023/11/24 05:34:07;;;;;;;3.83;1.58;;;;;;;;;;5033507;28;20491;-86
2023/11/24 05:36:33;;;;;;;1.65;1.35;;;;;;;;;;5031986;28;20030;-86
2023/11/24 05:38:59;;;;;;;4.07;1.73;;;;;;;;;;5032976;28;20025;-86
2023/11/24 05:41:28;;;;;;;1.52;1.20;;;;;;;;;;5032958;28;20021;-85
2023/11/24 05:43:55;;;;;;;3.75;1.35;;;;;;;;;;5033848;28;20046;-84
2023/11/24 05:46:21;;;;;;;4.30;1.60;;;;;;;;;;5033773;28;20034;-85
2023/11/24 05:48:47;;;;;;;2.45;1.33;;;;;;;;;;5031134;28;20024;-85
2023/11/24 05:51:13;;;;;;;3.90;1.70;;;;;;;;;;5034344;28;20094;-85
2023/11/24 05:53:40;;;;;;;2.33;1.10;;;;;;;;;;5019903;28;20083;-85
2023/11/24 05:56:06;;;;;;;2.53;1.30;;;7.30;99.90;;;;;;5031980;28;20025;-85
2023/11/24 05:58:32;;;;;;;2.17;1.50;;;7.30;99.90;;;;;;5033706;28;20021;-85
2023/11/24 06:00:58;;;;;;;4.43;1.30;;;;;;;;;;5033674;28;20035;-86
2023/11/24 06:03:24;;;;;;;3.55;1.88;;;;;;;;;;5032007;28;20060;-86
2023/11/24 06:05:50;;;;;;;9.52;3.33;;;;;;;;;;5034447;28;20057;-86
2023/11/24 06:08:17;;;;;;;6.25;1.77;;;;;;;;;;5030606;28;20116;-85
2023/11/24 06:10:43;;;;;;;4.97;1.67;;;;;;;;;;5032551;28;20067;-86
2023/11/24 06:13:09;;;;;;;3.90;2.00;;;;;;;;;;5031825;28;20374;-86
2023/11/24 06:15:35;;;;;;;2.83;2.05;;;;;;;;;;5031100;28;20493;-85
2023/11/24 06:18:01;;;;;;;4.18;1.60;;;;;;;;;;5032881;28;20036;-86
2023/11/24 06:20:27;;;;;;;2.33;1.90;;;;;;;;;;5015573;28;20267;-86
2023/11/24 06:22:54;;;;;;;2.63;1.60;;;;;;;;;;5029698;28;20059;-86
2023/11/24 06:25:20;;;;;;;2.13;1.55;;;;;;;;;;5014511;28;20033;-85
2023/11/24 06:27:46;;;;;;;3.70;1.88;;;;;;;;;;5030488;28;20632;-87
2023/11/24 06:30:13;;;;;;;2.92;1.70;;;;;;;;;;5029442;28;20033;-86
2023/11/24 06:32:39;;;;;;;2.38;2.10;;;;;;;;;;5027555;28;20154;-85
2023/11/24 06:35:10;;;;;;;2.67;1.73;;;;;;;;;;5028189;28;20041;-86
2023/11/24 06:37:36;;;;;;;2.00;1.17;;;;;;;;;;5029807;28;20451;-85
2023/11/24 06:40:05;;;;;;;2.05;1.20;;;;;;;;;;5031133;28;20037;-86
2023/11/24 06:42:31;;;;;;;2.20;1.35;;;;;;;;;;5029994;28;20024;-85
2023/11/24 06:44:57;;;;;;;1.67;1.27;;;;;;;;;;5030946;28;20053;-86
2023/11/24 06:47:24;;;;;;;2.15;1.70;;;;;;;;;;5031093;28;20414;-86
2023/11/24 06:49:51;;;;;;;1.95;1.40;;;;;;;;;;5031465;28;20487;-86
2023/11/24 06:52:17;;;;;;;1.67;1.23;;;;;;;;;;5029792;28;20115;-89
2023/11/24 06:54:43;;;;;;;5.82;2.13;;;;;;;;;;5035689;28;20465;-88
2023/11/24 06:57:09;;;;;;;6.25;2.67;;;;;;;;;;5033142;28;20632;-86
2023/11/24 06:59:35;;;;;;;3.95;1.98;;;;;;;;;;5029420;28;20024;-93
2023/11/24 07:02:03;;;;;;;3.35;1.90;;;;;;;;;;5033827;28;20034;-93
2023/11/24 07:04:29;;;;;;;;;;;7.30;99.90;;;;;;5036025;28;20029;-93
2023/11/24 07:06:55;;;;;;;3.97;2.05;;;;;;;;;;5034733;28;20004;-93
2023/11/24 07:09:21;;;;;;;4.28;1.90;;;;;;;;;;5035900;28;20558;-94
2023/11/24 07:11:47;;;;;;;6.57;2.92;;;;;;;;;;5032842;28;20105;-94
2023/11/24 07:14:14;;;;;;;5.40;2.55;;;;;;;;;;5033231;28;20096;-93
2023/11/24 07:16:40;;;;;;;7.57;4.10;;;;;;;;;;5034984;28;20483;-93
2023/11/24 07:19:06;;;;;;;10.25;2.90;;;;;;;;;;5032205;28;20023;-94
2023/11/24 07:21:32;;;;;;;3.70;2.55;;;;;;;;;;5034977;28;20025;-93
2023/11/24 07:23:58;;;;;;;5.28;2.50;;;;;;;;;;5026293;28;20060;-89
2023/11/24 07:26:24;;;;;;;7.35;2.47;;;;;;;;;;5020428;28;20471;-88
2023/11/24 07:28:50;;;;;;;5.18;2.33;;;;;;;;;;5018198;28;20025;-87
2023/11/24 07:31:17;;;;;;;4.70;1.65;;;;;;;;;;5015628;28;20503;-84
2023/11/24 07:33:43;;;;;;;5.07;2.17;;;;;;;;;;5001258;28;21570;-85
2023/11/24 07:36:09;;;;;;;8.63;2.20;;;;;;;;;;5018121;28;20036;-84
2023/11/24 07:38:36;;;;;;;5.97;2.20;;;;;;;;;;5016271;28;20030;-83
2023/11/24 07:41:07;;;;;;;6.05;3.10;;;;;;;;;;5020626;28;20030;-83
2023/11/24 07:43:33;;;;;;;7.20;2.65;;;;;;;;;;5021012;28;20120;-84
2023/11/24 07:45:59;;;;;;;3.80;2.17;;;;;;;;;;5006664;28;20566;-86
2023/11/24 07:48:25;;;;;;;5.60;2.67;;;;;;;;;;5025794;28;20028;-84
2023/11/24 07:50:51;;;;;;;5.15;2.08;;;;;;;;;;5026772;28;20033;-84
2023/11/24 07:53:17;;;;;;;9.48;2.42;;;;;;;;;;5023628;28;20016;-85
2023/11/24 07:55:43;;;;;;;2.35;1.52;;;;;;;;;;5024548;28;20433;-85
2023/11/24 07:58:10;;;;;;;6.28;2.65;;;;;;;;;;5029053;28;20030;-84
2023/11/24 08:00:37;;;;;;;4.13;2.30;;;;;;;;;;5031129;28;20065;-87
2023/11/24 08:03:04;;;;;;;3.90;2.28;;;;;;;;;;5033761;28;20052;-81
2023/11/24 08:05:30;;;;;;;6.45;2.60;;;;;;;;;;5025212;28;20035;-88
2023/11/24 08:07:56;;;;;;;6.47;2.30;;;;;;;;;;5036513;28;20148;-89
2023/11/24 08:10:23;;;;;;;4.20;2.33;;;;;;;;;;5036840;28;20040;-86
2023/11/24 08:12:49;;;;;;;5.20;2.10;;;;;;;;;;5029791;28;20026;-87
2023/11/24 08:15:15;;;;;;;1.65;1.33;;;;;;;;;;5027631;28;20091;-85
2023/11/24 08:17:43;;;;;;;8.70;2.35;;;;;;;;;;5015680;28;20025;-86
2023/11/24 08:20:11;;;;;;;1.92;1.67;;;8.40;99.90;;;;;;5029998;28;20024;-86
2023/11/24 08:22:38;;;;;;;3.75;1.80;;;;;;;;;;5026497;28;20029;-87
2023/11/24 08:25:06;;;;;;;1.67;1.48;;;;;;;;;;5021795;28;21017;-81
2023/11/24 08:27:32;;;;;;;3.95;1.80;;;;;;;;;;5026445;28;20028;-81
2023/11/24 08:29:59;;;;;;;2.28;1.30;;;;;;;;;;5027372;28;20520;-81
2023/11/24 08:32:25;;;;;;;3.53;1.33;;;;;;;;;;5028290;28;20501;-81
2023/11/24 08:34:52;;;;;;;3.13;1.63;;;;;;;;;;5020699;28;20037;-80
2023/11/24 08:37:19;;;;;;;2.35;1.75;;;;;;;;;;5024368;28;20036;-82
2023/11/24 08:39:45;;;;;;;3.85;1.40;;;;;;;;;;5021952;28;20047;-82
2023/11/24 08:42:11;;;;;;;4.50;1.85;;;;;;;;;;5025091;28;20103;-82
2023/11/24 08:44:37;;;;;;;1.20;1.10;;;9.30;99.90;;;;;;5020584;28;20498;-84
2023/11/24 08:47:03;;;;;;;2.15;1.27;;;;;;;;;;5018161;28;20037;-82
2023/11/24 08:49:29;;;;;;;1.67;1.38;;;;;;;;;;5023819;28;20040;-82
2023/11/24 08:51:55;;;;;;;2.13;1.73;;;;;;;;;;5024472;28;20063;-82
2023/11/24 08:54:22;;;;;;;5.53;1.45;;;;;;;;;;5020407;28;20454;-83
2023/11/24 08:56:49;;;;;;;4.28;1.25;;;;;;;;;;5020668;28;20513;-82
2023/11/24 08:59:15;;;;;;;6.10;1.60;;;;;;;;;;5020076;28;20107;-82
2023/11/24 09:01:41;;;;;;;1.38;1.25;;;;;;;;;;5025957;28;20025;-89
2023/11/24 09:04:09;;;;;;;4.13;1.52;;;;;;;;;;5025532;28;20171;-86
2023/11/24 09:06:38;;;;;;;2.80;2.03;;;;;;;;;;5009834;28;20043;-87
2023/11/24 09:09:07;;;;;;;2.42;1.30;;;10.30;99.90;;;;;;5026804;28;20553;-84
2023/11/24 09:11:34;;;;;;;22.40;5.10;;;;;;;;;;5027429;28;20040;-87
2023/11/24 09:14:00;;;;;;;4.10;1.58;;;;;;;;;;5023212;28;20033;-87
2023/11/24 09:16:26;;;;;;;3.15;1.02;;;;;;;;;;5024784;28;20237;-87
2023/11/24 09:18:53;;;;;;;2.35;1.20;;;;;;;;;;5027628;28;20109;-88
2023/11/24 09:21:20;;;;;;;2.10;1.10;;;;;;;;;;5024043;28;20045;-86
2023/11/24 09:23:46;;;;;;;1.55;1.15;;;;;;;;;;5023449;28;20122;-85
2023/11/24 09:26:12;;;;;;;3.78;1.55;;;;;;;;;;5042603;28;20044;-83
2023/11/24 09:28:38;;;;;;;2.80;1.70;;;;;;;;;;5034241;28;20032;-85
2023/11/24 09:31:08;;;;;;;2.17;1.00;;;;;;;;;;5022311;28;20037;-83
2023/11/24 09:33:41;;;;;;;3.90;2.20;;;10.90;97.40;;;;;;5043644;28;20508;-89
2023/11/24 09:36:07;;;;;;;5.35;3.00;;;11.70;97.20;;;;;;5044646;28;20021;-85
2023/11/24 09:38:33;;;;;;;2.42;1.40;;;;;;;;;;5040939;28;20044;-89
2023/11/24 09:41:08;;;;;;;1.70;1.48;;;11.40;99.90;;;;;;5044734;28;20028;-85
2023/11/24 09:43:37;;;;;;;2.15;1.98;;;11.60;95.40;;;;;;5022238;28;20112;-85
2023/11/24 09:46:07;;;;;;;1.92;1.58;;;11.70;95.20;;;;;;5040849;28;20037;-83
2023/11/24 09:48:33;;;;;;;2.75;1.73;;;;;;;;;;5042783;28;20097;-85
2023/11/24 09:51:05;;;;;;;0.90;0.90;;;13.40;92.40;;;;;;5038586;28;20029;-85
2023/11/24 09:53:35;;;;;;;0.98;0.90;;;12.30;91.80;;;;;;5039886;28;20025;-84
2023/11/24 09:56:04;;;;;;;1.02;0.73;;;12.20;91.30;;;;;;5040171;28;20017;-85
2023/11/24 09:58:34;;;;;;;1.05;0.80;;;12.20;93.40;;;;;;5022418;28;20044;-85
2023/11/24 10:01:21;;;;;;;1.88;0.95;;;12.30;92.40;;;;;;5040006;28;20588;-84
2023/11/24 10:03:52;;;;;;;2.03;0.90;;;12.40;90.90;;;;;;5036659;28;20028;-83
2023/11/24 10:06:19;;;;;;;0.60;0.60;;;;;;;;;;5041854;28;20079;-84
2023/11/24 10:08:45;;;;;;;4.40;0.93;;;;;;;;;;5043576;28;20112;-84
2023/11/24 10:11:27;;;;;;;1.00;0.70;;;12.60;87.50;;;;;;5040717;28;20449;-86
2023/11/24 10:13:57;;;;;;;1.10;1.00;;;12.70;88.90;;;;;;5039290;28;20029;-86
2023/11/24 10:16:23;;;;;;;0.70;0.70;;;;;;;;;;5041732;28;20063;-86
2023/11/24 10:18:50;;;;;;;0.85;0.85;;;13.00;85.90;;;;;;5039886;28;20082;-85
2023/11/24 10:21:16;;;;;;;0.65;0.60;;;;;;;;;;5046493;28;20122;-87
2023/11/24 10:23:42;;;;;;;0.70;0.70;;;;;;;;;;5038589;28;20894;-87
2023/11/24 10:26:15;;;;;;;0.60;0.60;;;13.70;80.00;;;;;;5023143;28;20286;-85
2023/11/24 10:28:42;;;;;;;0.70;0.70;;;;;;;;;;5025681;28;20168;-88
2023/11/24 10:31:08;;;;;;;0.90;0.90;;;;;;;;;;5022424;28;20069;-86
2023/11/24 10:33:36;;;;;;;0.70;0.70;;;;;;;;;;5037246;28;20271;-86
2023/11/24 10:36:04;;;;;;;1.20;1.20;;;16.00;75.90;;;;;;5038746;28;20034;-86
2023/11/24 10:38:31;;;;;;;1.60;1.50;;;18.60;66.00;;;;;;5041629;28;20020;-88
2023/11/24 10:41:00;;;;;;;1.30;1.30;;;20.10;58.90;;;;;;5023436;28;20040;-83
2023/11/24 10:43:34;;;;;;;2.05;0.60;;;21.30;55.60;;;;;;5017350;28;20040;-80
2023/11/24 10:46:01;;;;;;;0.90;0.90;;;;;;;;;;5033393;28;20660;-82
2023/11/24 10:48:47;;;;;;;0.70;0.70;;;21.90;51.10;;;;;;5033064;28;20033;-82
2023/11/24 10:51:27;;;;;;;0.90;0.90;;;22.50;56.90;;;;;;5035241;28;20048;-82
2023/11/24 10:53:56;;;;;;;0.70;0.70;;;22.90;48.00;;;;;;5015806;28;20033;-82
2023/11/24 10:56:23;;;;;;;0.30;0.30;;;;;;;;;;5032540;28;20029;-83
2023/11/24 10:58:53;;;;;;;1.13;0.30;;;;;;;;;;5035591;28;20029;-81
2023/11/24 11:01:22;;;;;;;1.40;0.70;;;;;;;;;;5015411;28;20329;-84
2023/11/24 11:03:55;;;;;;;0.60;0.60;;;19.40;53.50;;;;;;5019097;28;20106;-84
2023/11/24 11:06:54;;;;;;;1.83;0.50;;;19.10;53.70;;;;;;5038358;28;20038;-84
2023/11/24 11:10:12;;;;;;;0.60;0.60;;;18.60;55.10;;;;;;5037594;28;20319;-81
2023/11/24 11:12:32;;;;;;;0.40;0.40;;;18.70;54.60;;;;;;5026194;28;20046;-84
2023/11/24 11:14:58;;;;;;;0.50;0.50;;;18.90;54.90;;;;;;5032477;28;20032;-82
2023/11/24 11:17:27;;;;;;;0.60;0.60;;;;;;;;;;5035976;28;20021;-82
2023/11/24 11:20:22;;;;;;;0.40;0.38;;;18.90;55.20;;;;;;5038389;28;20078;-81
2023/11/24 11:22:58;;;;;;;0.40;0.40;;;18.50;55.30;;;;;;5040254;28;20720;-82
2023/11/24 11:25:27;;;;;;;0.47;0.40;;;;;;;;;;5032169;28;20025;-83
2023/11/24 11:28:16;;;;;;;0.30;0.30;;;18.00;55.90;;;;;;5032817;28;20025;-82
2023/11/24 11:30:44;;;;;;;0.82;0.70;;;17.70;57.40;;;;;;5033503;28;20033;-81
2023/11/24 11:33:12;;;;;;;0.30;0.30;;;17.40;56.50;;;;;;5030664;28;20021;-82
2023/11/24 11:35:44;;;;;;;2.00;0.98;;;17.40;58.30;;;;;;5033134;28;20018;-82
2023/11/24 11:38:13;;;;;;;1.10;0.60;;;;;;;;;;5037508;28;20033;-82
2023/11/24 11:40:43;;;;;;;0.43;0.30;;;;;;;;;;5031889;28;20061;-83
2023/11/24 11:43:12;;;;;;;0.60;0.35;;;16.60;58.30;;;;;;5031364;28;20688;-82
2023/11/24 11:45:52;;;;;;;0.40;0.40;;;16.30;59.10;;;;;;5026741;28;20159;-83
2023/11/24 11:48:20;;;;;;;0.90;0.32;;;;;;;;;;5026869;28;20029;-82
2023/11/24 11:51:02;;;;;;;0.95;0.50;;;;;;;;;;5027416;28;20024;-82
2023/11/24 11:53:29;;;;;;;1.27;0.47;;;15.00;64.60;;;;;;5026852;28;20505;-82
2023/11/24 11:55:56;;;;;;;0.75;0.50;;;15.40;62.70;;;;;;5026429;28;20487;-83
2023/11/24 11:58:27;;;;;;;1.80;0.88;;;;;;;;;;5028000;28;20038;-82
2023/11/24 12:00:53;;;;;;;0.60;0.60;;;;;;;;;;5026053;28;20140;-82
2023/11/24 12:03:19;;;;;;;0.50;0.50;;;;;;;;;;5026521;28;20588;-83
2023/11/24 12:05:49;;;;;;;0.57;0.57;;;;;;;;;;5025289;28;20037;-82
2023/11/24 12:08:16;;;;;;;0.93;0.77;;;14.50;64.00;;;;;;5028419;28;20514;-83
2023/11/24 12:10:42;;;;;;;4.22;1.67;;;13.90;65.70;;;;;;5026959;28;20029;-82
2023/11/24 12:13:14;;;;;;;2.90;2.00;;;13.70;66.50;;;;;;5017265;28;20064;-83
2023/11/24 12:15:42;;;;;;;0.40;0.40;;;;;;;;;;5017438;28;20028;-84
2023/11/24 12:18:16;;;;;;;0.52;0.52;;;13.10;69.20;;;;;;5041142;28;20021;-82
2023/11/24 12:20:44;;;;;;;7.75;2.47;;;;;;;;;;5037769;28;20597;-83
2023/11/24 12:23:11;;;;;;;1.50;1.33;;;12.40;72.00;;;;;;5039894;28;20112;-84
2023/11/24 12:25:38;;;;;;;1.05;0.85;;;12.40;73.20;;;;;;5036653;28;20034;-84
2023/11/24 12:28:11;;;;;;;0.70;0.70;;;12.10;74.30;;;;;;5042681;28;20037;-84
2023/11/24 12:30:41;;;;;;;1.95;1.23;;;11.60;78.60;;;;;;5044132;28;20098;-84
2023/11/24 12:33:19;;;;;;;0.57;0.57;;;11.80;79.10;;;;;;5040444;28;20025;-84
2023/11/24 12:35:48;;;;;;;;;;;11.70;80.50;;;;;;5040416;28;20025;-83
2023/11/24 12:38:15;;;;;;;0.75;0.75;;;;;;;;;;5040148;28;19991;-84
2023/11/24 12:40:43;;;;;;;0.60;0.60;;;11.60;83.80;;;;;;5049365;28;20025;-86
2023/11/24 12:43:21;;;;;;;0.70;0.70;;;11.60;79.60;;;;;;5051077;28;20037;-85
2023/11/24 12:45:48;;;;;;;0.65;0.60;;;11.40;80.50;;;;;;5041811;28;20508;-88
2023/11/24 12:48:21;;;;;;;0.50;0.50;;;11.30;81.70;;;;;;5045836;28;20029;-87
2023/11/24 12:50:47;;;;;;;2.03;1.83;;;;;;;;;;5030402;28;20075;-86
2023/11/24 12:53:17;;;;;;;2.13;0.70;;;;;;;;;;5022279;28;20021;-85
2023/11/24 12:55:43;;;;;;;0.68;0.60;;;;;;;;;;5040032;28;20584;-84
2023/11/24 12:58:10;;;;;;;0.75;0.70;;;;;;;;;;5026388;28;20037;-86
2023/11/24 13:00:36;;;;;;;1.10;1.00;;;;;;;;;;5041150;28;20025;-85
2023/11/24 13:03:03;;;;;;;5.20;1.88;;;;;;;;;;5046704;28;20113;-84
2023/11/24 13:05:29;;;;;;;3.63;1.42;;;;;;;;;;5038589;28;20032;-84
2023/11/24 13:07:58;;;;;;;0.60;0.60;;;;;;;;;;5039373;28;20048;-85
2023/11/24 13:10:24;;;;;;;2.10;1.10;;;;;;;;;;5022517;28;20025;-88
2023/11/24 13:12:51;;;;;;;2.22;1.17;;;;;;;;;;5036675;28;20138;-90
2023/11/24 13:15:21;;;;;;;1.58;0.80;;;;;;;;;;5028366;28;20640;-82
2023/11/24 13:17:49;;;;;;;7.72;2.90;;;;;;;;;;5028884;28;20573;-82
2023/11/24 13:20:16;;;;;;;15.85;3.88;;;;;;;;;;5030990;28;20572;-82
2023/11/24 13:22:43;;;;;;;4.95;1.70;;;;;;;;;;5016024;28;20029;-85
2023/11/24 13:25:09;;;;;;;3.33;1.73;;;;;;;;;;5030427;28;20030;-88
2023/11/24 13:27:36;;;;;;;2.85;2.20;;;;;;;;;;5037361;28;20132;-87
2023/11/24 13:30:03;;;;;;;1.73;0.98;;;;;;;;;;5030084;28;20132;-86
2023/11/24 13:32:29;;;;;;;1.55;1.08;;;;;;;;;;5035075;28;20036;-88
2023/11/24 13:34:56;;;;;;;2.13;1.23;;;;;;;;;;5031636;28;20523;-84
2023/11/24 13:37:22;;;;;;;13.93;5.13;;;;;;;;;;5029074;28;20030;-86
2023/11/24 13:39:49;;;;;;;19.35;6.28;;;;;;;;;;5032148;28;20045;-85
2023/11/24 13:42:16;;;;;;;3.88;2.65;;;;;;;;;;5030347;28;20037;-84
2023/11/24 13:44:44;;;;;;;13.85;3.83;;;;;;;;;;5027804;28;20057;-86
2023/11/24 13:47:13;;;;;;;1.75;1.08;;;;;;;;;;5013400;28;20530;-86
2023/11/24 13:49:39;;;;;;;3.78;1.80;;;;;;;;;;5032263;28;20025;-87
2023/11/24 13:52:05;;;;;;;5.00;2.95;;;;;;;;;;5032379;28;20132;-86
2023/11/24 13:54:33;;;;;;;2.75;1.42;;;;;;;;;;5029110;28;20025;-87
2023/11/24 13:57:00;;;;;;;1.00;0.95;;;;;;;;;;5029453;28;20391;-87
2023/11/24 13:59:26;;;;;;;1.50;1.33;;;11.30;99.90;;;;;;5028163;28;20528;-86
2023/11/24 14:01:52;;;;;;;14.85;3.83;;;;;;;;;;5030582;28;20080;-85
2023/11/24 14:04:18;;;;;;;4.55;1.73;;;;;;;;;;5029334;28;20025;-86
2023/11/24 14:06:50;;;;;;;6.90;3.17;;;10.60;93.60;;;;;;5031531;28;20033;-86
2023/11/24 14:09:20;;;;;;;7.25;2.88;;;;;;;;;;5030925;28;20067;-86
2023/11/24 14:11:46;;;;;;;7.95;2.95;;;;;;;;;;5029155;28;20036;-87
2023/11/24 14:14:12;;;;;;;6.40;2.75;;;;;;;;;;5026975;28;20033;-87
2023/11/24 14:16:39;;;;;;;4.00;2.38;;;;;;;;;;5028965;28;20109;-86